sensor_id;sensor_type;location;lat;lon;timestamp;temperature;humidity
9329;DHT22;4703;48.748;19.142;2023-03-14T00:01:45;4.30;99.90
9329;DHT22;4703;48.748;19.142;2023-03-14T00:04:12;4.40;99.90
9329;DHT22;4703;48.748;19.142;2023-03-14T00:06:39;7.20;99.90
9329;DHT22;4703;48.748;19.142;2023-03-14T00:09:06;4.30;99.90
9329;DHT22;4703;48.748;19.142;2023-03-14T00:11:34;4.20;99.90
9329;DHT22;4703;48.748;19.142;2023-03-14T00:14:01;4.20;99.90
9329;DHT22;4703;48.748;19.142;2023-03-14T00:16:29;4.20;99.90
9329;DHT22;4703;48.748;19.142;2023-03-14T00:18:58;4.10;99.90
9329;DHT22;4703;48.748;19.142;2023-03-14T00:21:26;4.10;99.90
9329;DHT22;4703;48.748;19.142;2023-03-14T00:23:53;4.10;99.90
9329;DHT22;4703;48.748;19.142;2023-03-14T00:26:21;4.10;99.90
9329;DHT22;4703;48.748;19.142;2023-03-14T00:28:52;4.10;99.90
9329;DHT22;4703;48.748;19.142;2023-03-14T00:31:20;4.00;99.90
9329;DHT22;4703;48.748;19.142;2023-03-14T00:33:47;3.90;99.90
9329;DHT22;4703;48.748;19.142;2023-03-14T00:36:16;4.00;99.90
9329;DHT22;4703;48.748;19.142;2023-03-14T00:38:45;3.90;99.90
9329;DHT22;4703;48.748;19.142;2023-03-14T00:41:16;3.90;99.90
9329;DHT22;4703;48.748;19.142;2023-03-14T00:43:45;3.90;99.90
9329;DHT22;4703;48.748;19.142;2023-03-14T00:46:12;3.90;99.90
9329;DHT22;4703;48.748;19.142;2023-03-14T00:48:39;3.80;99.90
9329;DHT22;4703;48.748;19.142;2023-03-14T00:51:08;3.80;99.90
9329;DHT22;4703;48.748;19.142;2023-03-14T00:53:36;3.80;99.90
9329;DHT22;4703;48.748;19.142;2023-03-14T00:56:07;3.80;99.90
9329;DHT22;4703;48.748;19.142;2023-03-14T00:58:36;3.70;99.90
9329;DHT22;4703;48.748;19.142;2023-03-14T01:01:13;3.70;99.90
9329;DHT22;4703;48.748;19.142;2023-03-14T01:03:41;3.70;99.90
9329;DHT22;4703;48.748;19.142;2023-03-14T01:06:14;3.70;99.90
9329;DHT22;4703;48.748;19.142;2023-03-14T01:08:43;3.70;99.90
9329;DHT22;4703;48.748;19.142;2023-03-14T01:11:13;3.70;99.90
9329;DHT22;4703;48.748;19.142;2023-03-14T01:13:51;3.60;99.90
9329;DHT22;4703;48.748;19.142;2023-03-14T01:16:19;3.60;99.90
9329;DHT22;4703;48.748;19.142;2023-03-14T01:18:48;3.60;99.90
9329;DHT22;4703;48.748;19.142;2023-03-14T01:23:53;3.50;99.90
9329;DHT22;4703;48.748;19.142;2023-03-14T01:26:22;3.50;99.90
9329;DHT22;4703;48.748;19.142;2023-03-14T01:28:52;3.50;99.90
9329;DHT22;4703;48.748;19.142;2023-03-14T01:31:20;3.50;99.90
9329;DHT22;4703;48.748;19.142;2023-03-14T01:33:48;3.50;99.90
9329;DHT22;4703;48.748;19.142;2023-03-14T01:36:15;3.50;99.90
9329;DHT22;4703;48.748;19.142;2023-03-14T01:38:42;3.50;99.90
9329;DHT22;4703;48.748;19.142;2023-03-14T01:41:16;3.40;99.90
9329;DHT22;4703;48.748;19.142;2023-03-14T01:43:45;5.90;99.90
9329;DHT22;4703;48.748;19.142;2023-03-14T01:49:35;3.30;99.90
9329;DHT22;4703;48.748;19.142;2023-03-14T01:52:06;3.20;99.90
9329;DHT22;4703;48.748;19.142;2023-03-14T01:54:49;3.20;99.90
9329;DHT22;4703;48.748;19.142;2023-03-14T01:57:43;3.20;99.90
9329;DHT22;4703;48.748;19.142;2023-03-14T02:00:14;3.20;99.90
9329;DHT22;4703;48.748;19.142;2023-03-14T02:02:46;3.10;99.90
9329;DHT22;4703;48.748;19.142;2023-03-14T02:05:21;3.10;99.90
9329;DHT22;4703;48.748;19.142;2023-03-14T02:07:55;3.00;99.90
9329;DHT22;4703;48.748;19.142;2023-03-14T02:10:52;4.30;99.90
9329;DHT22;4703;48.748;19.142;2023-03-14T02:13:20;3.00;99.90
9329;DHT22;4703;48.748;19.142;2023-03-14T02:15:48;2.90;99.90
9329;DHT22;4703;48.748;19.142;2023-03-14T02:18:16;2.90;99.90
9329;DHT22;4703;48.748;19.142;2023-03-14T02:20:59;2.90;99.90
9329;DHT22;4703;48.748;19.142;2023-03-14T02:26:41;2.90;99.90
9329;DHT22;4703;48.748;19.142;2023-03-14T02:29:10;2.90;99.90
9329;DHT22;4703;48.748;19.142;2023-03-14T02:31:38;2.80;99.90
9329;DHT22;4703;48.748;19.142;2023-03-14T02:34:06;2.80;99.90
9329;DHT22;4703;48.748;19.142;2023-03-14T02:36:33;2.80;99.90
9329;DHT22;4703;48.748;19.142;2023-03-14T02:39:20;2.80;99.90
9329;DHT22;4703;48.748;19.142;2023-03-14T02:41:51;5.40;99.90
9329;DHT22;4703;48.748;19.142;2023-03-14T02:44:18;2.80;99.90
9329;DHT22;4703;48.748;19.142;2023-03-14T02:46:45;2.90;99.90
9329;DHT22;4703;48.748;19.142;2023-03-14T02:49:13;2.90;99.90
9329;DHT22;4703;48.748;19.142;2023-03-14T02:51:42;3.00;99.90
9329;DHT22;4703;48.748;19.142;2023-03-14T02:54:09;3.00;99.90
9329;DHT22;4703;48.748;19.142;2023-03-14T02:56:37;3.00;99.90
9329;DHT22;4703;48.748;19.142;2023-03-14T02:59:04;3.00;99.90
9329;DHT22;4703;48.748;19.142;2023-03-14T03:01:33;3.10;99.90
9329;DHT22;4703;48.748;19.142;2023-03-14T03:04:01;3.20;99.90
9329;DHT22;4703;48.748;19.142;2023-03-14T03:06:28;3.10;99.90
9329;DHT22;4703;48.748;19.142;2023-03-14T03:08:55;3.20;99.90
9329;DHT22;4703;48.748;19.142;2023-03-14T03:11:22;3.20;99.90
9329;DHT22;4703;48.748;19.142;2023-03-14T03:13:49;3.20;99.90
9329;DHT22;4703;48.748;19.142;2023-03-14T03:16:16;3.30;99.90
9329;DHT22;4703;48.748;19.142;2023-03-14T03:18:43;3.30;99.90
9329;DHT22;4703;48.748;19.142;2023-03-14T03:21:10;3.30;99.90
9329;DHT22;4703;48.748;19.142;2023-03-14T03:23:37;3.30;99.90
9329;DHT22;4703;48.748;19.142;2023-03-14T03:26:04;6.40;99.90
9329;DHT22;4703;48.748;19.142;2023-03-14T03:28:31;3.30;99.90
9329;DHT22;4703;48.748;19.142;2023-03-14T03:30:58;3.30;99.90
9329;DHT22;4703;48.748;19.142;2023-03-14T03:33:25;3.30;99.90
9329;DHT22;4703;48.748;19.142;2023-03-14T03:35:52;3.40;99.90
9329;DHT22;4703;48.748;19.142;2023-03-14T03:38:19;3.40;99.90
9329;DHT22;4703;48.748;19.142;2023-03-14T03:40:46;3.40;99.90
9329;DHT22;4703;48.748;19.142;2023-03-14T03:43:13;3.40;99.90
9329;DHT22;4703;48.748;19.142;2023-03-14T03:45:41;3.30;99.90
9329;DHT22;4703;48.748;19.142;2023-03-14T03:48:08;3.40;99.90
9329;DHT22;4703;48.748;19.142;2023-03-14T03:50:35;3.50;99.90
9329;DHT22;4703;48.748;19.142;2023-03-14T03:53:02;3.40;99.90
9329;DHT22;4703;48.748;19.142;2023-03-14T03:55:29;3.50;99.90
9329;DHT22;4703;48.748;19.142;2023-03-14T03:57:56;3.50;99.90
9329;DHT22;4703;48.748;19.142;2023-03-14T04:00:23;3.50;99.90
9329;DHT22;4703;48.748;19.142;2023-03-14T04:02:51;3.50;99.90
9329;DHT22;4703;48.748;19.142;2023-03-14T04:05:18;3.50;99.90
9329;DHT22;4703;48.748;19.142;2023-03-14T04:07:45;3.40;99.90
9329;DHT22;4703;48.748;19.142;2023-03-14T04:10:12;3.40;99.90
9329;DHT22;4703;48.748;19.142;2023-03-14T04:12:39;3.40;99.90
9329;DHT22;4703;48.748;19.142;2023-03-14T04:15:06;3.40;99.90
9329;DHT22;4703;48.748;19.142;2023-03-14T04:17:34;3.40;99.90
9329;DHT22;4703;48.748;19.142;2023-03-14T04:20:01;3.30;99.90
9329;DHT22;4703;48.748;19.142;2023-03-14T04:22:28;3.30;99.90
9329;DHT22;4703;48.748;19.142;2023-03-14T04:24:55;3.20;99.90
9329;DHT22;4703;48.748;19.142;2023-03-14T04:27:22;3.20;99.90
9329;DHT22;4703;48.748;19.142;2023-03-14T04:29:48;5.70;99.90
9329;DHT22;4703;48.748;19.142;2023-03-14T04:32:15;3.20;99.90
9329;DHT22;4703;48.748;19.142;2023-03-14T04:34:42;3.20;99.90
9329;DHT22;4703;48.748;19.142;2023-03-14T04:37:09;3.20;99.90
9329;DHT22;4703;48.748;19.142;2023-03-14T04:39:36;3.90;99.90
9329;DHT22;4703;48.748;19.142;2023-03-14T04:42:03;5.80;99.90
9329;DHT22;4703;48.748;19.142;2023-03-14T04:44:30;3.20;99.90
9329;DHT22;4703;48.748;19.142;2023-03-14T04:46:57;3.10;99.90
9329;DHT22;4703;48.748;19.142;2023-03-14T04:49:24;2.80;99.90
9329;DHT22;4703;48.748;19.142;2023-03-14T04:51:51;5.70;99.90
9329;DHT22;4703;48.748;19.142;2023-03-14T04:54:18;3.10;99.90
9329;DHT22;4703;48.748;19.142;2023-03-14T04:56:45;3.10;99.90
9329;DHT22;4703;48.748;19.142;2023-03-14T04:59:12;3.10;99.90
9329;DHT22;4703;48.748;19.142;2023-03-14T05:01:39;3.10;99.90
9329;DHT22;4703;48.748;19.142;2023-03-14T05:04:07;3.10;99.90
9329;DHT22;4703;48.748;19.142;2023-03-14T05:06:34;3.10;99.90
9329;DHT22;4703;48.748;19.142;2023-03-14T05:09:01;3.10;99.90
9329;DHT22;4703;48.748;19.142;2023-03-14T05:11:28;3.10;99.90
9329;DHT22;4703;48.748;19.142;2023-03-14T05:13:56;3.10;99.90
9329;DHT22;4703;48.748;19.142;2023-03-14T05:16:22;3.20;99.90
9329;DHT22;4703;48.748;19.142;2023-03-14T05:18:50;3.10;99.90
9329;DHT22;4703;48.748;19.142;2023-03-14T05:21:17;5.80;99.90
9329;DHT22;4703;48.748;19.142;2023-03-14T05:23:44;3.30;99.90
9329;DHT22;4703;48.748;19.142;2023-03-14T05:26:11;3.30;99.90
9329;DHT22;4703;48.748;19.142;2023-03-14T05:28:38;3.30;99.90
9329;DHT22;4703;48.748;19.142;2023-03-14T05:31:08;3.30;99.90
9329;DHT22;4703;48.748;19.142;2023-03-14T05:33:36;3.40;99.90
9329;DHT22;4703;48.748;19.142;2023-03-14T05:36:03;3.50;99.90
9329;DHT22;4703;48.748;19.142;2023-03-14T05:38:30;3.50;99.90
9329;DHT22;4703;48.748;19.142;2023-03-14T05:40:58;3.50;99.90
9329;DHT22;4703;48.748;19.142;2023-03-14T05:43:25;3.50;99.90
9329;DHT22;4703;48.748;19.142;2023-03-14T05:45:51;3.60;99.90
9329;DHT22;4703;48.748;19.142;2023-03-14T05:48:19;3.60;99.90
9329;DHT22;4703;48.748;19.142;2023-03-14T05:50:57;3.60;99.90
9329;DHT22;4703;48.748;19.142;2023-03-14T05:53:25;3.60;99.90
9329;DHT22;4703;48.748;19.142;2023-03-14T05:55:54;3.60;99.90
9329;DHT22;4703;48.748;19.142;2023-03-14T05:58:24;3.70;99.90
9329;DHT22;4703;48.748;19.142;2023-03-14T06:00:51;3.70;99.90
9329;DHT22;4703;48.748;19.142;2023-03-14T06:03:18;3.80;99.90
9329;DHT22;4703;48.748;19.142;2023-03-14T06:05:45;4.60;99.90
9329;DHT22;4703;48.748;19.142;2023-03-14T06:08:12;3.80;99.90
9329;DHT22;4703;48.748;19.142;2023-03-14T06:10:43;3.90;99.90
9329;DHT22;4703;48.748;19.142;2023-03-14T06:13:09;3.90;99.90
9329;DHT22;4703;48.748;19.142;2023-03-14T06:15:36;4.00;99.90
9329;DHT22;4703;48.748;19.142;2023-03-14T06:18:03;4.90;99.90
9329;DHT22;4703;48.748;19.142;2023-03-14T06:20:30;6.90;99.90
9329;DHT22;4703;48.748;19.142;2023-03-14T06:22:57;4.10;99.90
9329;DHT22;4703;48.748;19.142;2023-03-14T06:25:24;4.10;99.90
9329;DHT22;4703;48.748;19.142;2023-03-14T06:27:51;4.20;99.90
9329;DHT22;4703;48.748;19.142;2023-03-14T06:30:18;4.20;99.90
9329;DHT22;4703;48.748;19.142;2023-03-14T06:32:45;4.30;99.90
9329;DHT22;4703;48.748;19.142;2023-03-14T06:35:12;4.30;99.90
9329;DHT22;4703;48.748;19.142;2023-03-14T06:37:40;6.00;99.90
9329;DHT22;4703;48.748;19.142;2023-03-14T06:40:08;4.30;99.90
9329;DHT22;4703;48.748;19.142;2023-03-14T06:42:36;4.40;99.90
9329;DHT22;4703;48.748;19.142;2023-03-14T06:45:04;4.40;99.90
9329;DHT22;4703;48.748;19.142;2023-03-14T06:47:31;4.40;99.90
9329;DHT22;4703;48.748;19.142;2023-03-14T06:49:58;4.40;99.90
9329;DHT22;4703;48.748;19.142;2023-03-14T06:52:25;4.40;99.90
9329;DHT22;4703;48.748;19.142;2023-03-14T06:54:52;5.80;99.90
9329;DHT22;4703;48.748;19.142;2023-03-14T06:57:19;5.90;99.90
9329;DHT22;4703;48.748;19.142;2023-03-14T06:59:46;4.50;99.90
9329;DHT22;4703;48.748;19.142;2023-03-14T07:02:13;7.20;99.90
9329;DHT22;4703;48.748;19.142;2023-03-14T07:04:40;6.30;99.90
9329;DHT22;4703;48.748;19.142;2023-03-14T07:07:07;4.30;99.90
9329;DHT22;4703;48.748;19.142;2023-03-14T07:09:35;4.60;99.90
9329;DHT22;4703;48.748;19.142;2023-03-14T07:12:02;7.00;99.90
9329;DHT22;4703;48.748;19.142;2023-03-14T07:14:30;4.70;99.90
9329;DHT22;4703;48.748;19.142;2023-03-14T07:16:57;4.70;99.90
9329;DHT22;4703;48.748;19.142;2023-03-14T07:19:24;4.70;99.90
9329;DHT22;4703;48.748;19.142;2023-03-14T07:21:51;4.80;99.90
9329;DHT22;4703;48.748;19.142;2023-03-14T07:24:18;4.80;99.90
9329;DHT22;4703;48.748;19.142;2023-03-14T07:26:45;7.20;99.90
9329;DHT22;4703;48.748;19.142;2023-03-14T07:29:12;7.90;99.90
9329;DHT22;4703;48.748;19.142;2023-03-14T07:31:39;4.90;99.90
9329;DHT22;4703;48.748;19.142;2023-03-14T07:34:06;4.90;99.90
9329;DHT22;4703;48.748;19.142;2023-03-14T07:36:33;4.90;99.90
9329;DHT22;4703;48.748;19.142;2023-03-14T07:39:00;5.40;99.90
9329;DHT22;4703;48.748;19.142;2023-03-14T07:41:27;5.00;99.90
9329;DHT22;4703;48.748;19.142;2023-03-14T07:43:55;5.00;99.90
9329;DHT22;4703;48.748;19.142;2023-03-14T07:46:22;5.00;99.90
9329;DHT22;4703;48.748;19.142;2023-03-14T07:48:49;5.10;99.90
9329;DHT22;4703;48.748;19.142;2023-03-14T07:51:16;7.00;99.90
9329;DHT22;4703;48.748;19.142;2023-03-14T07:53:43;5.20;99.90
9329;DHT22;4703;48.748;19.142;2023-03-14T07:56:10;5.50;99.90
9329;DHT22;4703;48.748;19.142;2023-03-14T07:58:37;6.70;99.90
9329;DHT22;4703;48.748;19.142;2023-03-14T08:01:04;5.30;99.90
9329;DHT22;4703;48.748;19.142;2023-03-14T08:03:31;5.30;99.90
9329;DHT22;4703;48.748;19.142;2023-03-14T08:05:58;5.40;99.90
9329;DHT22;4703;48.748;19.142;2023-03-14T08:08:25;5.40;99.90
9329;DHT22;4703;48.748;19.142;2023-03-14T08:10:52;5.50;99.90
9329;DHT22;4703;48.748;19.142;2023-03-14T08:13:19;5.60;99.90
9329;DHT22;4703;48.748;19.142;2023-03-14T08:15:48;5.70;99.90
9329;DHT22;4703;48.748;19.142;2023-03-14T08:18:15;5.70;99.90
9329;DHT22;4703;48.748;19.142;2023-03-14T08:20:42;5.80;99.90
9329;DHT22;4703;48.748;19.142;2023-03-14T08:23:10;5.90;99.90
9329;DHT22;4703;48.748;19.142;2023-03-14T08:25:37;7.60;99.90
9329;DHT22;4703;48.748;19.142;2023-03-14T08:28:05;6.10;99.90
9329;DHT22;4703;48.748;19.142;2023-03-14T08:30:31;6.20;99.90
9329;DHT22;4703;48.748;19.142;2023-03-14T08:32:58;9.10;99.90
9329;DHT22;4703;48.748;19.142;2023-03-14T08:35:26;6.40;99.90
9329;DHT22;4703;48.748;19.142;2023-03-14T08:37:54;7.90;99.90
9329;DHT22;4703;48.748;19.142;2023-03-14T08:40:21;6.60;99.90
9329;DHT22;4703;48.748;19.142;2023-03-14T08:42:48;9.50;99.90
9329;DHT22;4703;48.748;19.142;2023-03-14T08:45:16;8.10;99.90
9329;DHT22;4703;48.748;19.142;2023-03-14T08:47:44;8.70;99.90
9329;DHT22;4703;48.748;19.142;2023-03-14T08:50:11;6.90;99.90
9329;DHT22;4703;48.748;19.142;2023-03-14T08:52:42;7.00;99.90
9329;DHT22;4703;48.748;19.142;2023-03-14T08:55:09;7.00;99.90
9329;DHT22;4703;48.748;19.142;2023-03-14T08:57:36;8.50;99.90
9329;DHT22;4703;48.748;19.142;2023-03-14T09:00:05;7.10;99.90
9329;DHT22;4703;48.748;19.142;2023-03-14T09:02:37;7.10;99.90
9329;DHT22;4703;48.748;19.142;2023-03-14T09:05:04;7.20;99.90
9329;DHT22;4703;48.748;19.142;2023-03-14T09:07:32;7.30;99.90
9329;DHT22;4703;48.748;19.142;2023-03-14T09:09:59;7.40;99.90
9329;DHT22;4703;48.748;19.142;2023-03-14T09:12:26;9.60;99.90
9329;DHT22;4703;48.748;19.142;2023-03-14T09:14:53;9.80;99.90
9329;DHT22;4703;48.748;19.142;2023-03-14T09:17:20;7.50;99.90
9329;DHT22;4703;48.748;19.142;2023-03-14T09:19:47;8.90;99.90
9329;DHT22;4703;48.748;19.142;2023-03-14T09:22:17;7.80;99.90
9329;DHT22;4703;48.748;19.142;2023-03-14T09:24:45;8.40;99.90
9329;DHT22;4703;48.748;19.142;2023-03-14T09:27:13;9.90;99.90
9329;DHT22;4703;48.748;19.142;2023-03-14T09:30:08;9.20;99.90
9329;DHT22;4703;48.748;19.142;2023-03-14T09:32:44;7.10;99.90
9329;DHT22;4703;48.748;19.142;2023-03-14T09:35:11;10.70;99.90
9329;DHT22;4703;48.748;19.142;2023-03-14T09:37:38;8.60;99.90
9329;DHT22;4703;48.748;19.142;2023-03-14T09:40:24;10.70;99.90
9329;DHT22;4703;48.748;19.142;2023-03-14T09:43:05;8.80;99.90
9329;DHT22;4703;48.748;19.142;2023-03-14T09:45:35;11.50;99.90
9329;DHT22;4703;48.748;19.142;2023-03-14T09:48:04;11.30;99.90
9329;DHT22;4703;48.748;19.142;2023-03-14T09:50:43;8.80;98.40
9329;DHT22;4703;48.748;19.142;2023-03-14T09:53:17;8.70;97.80
9329;DHT22;4703;48.748;19.142;2023-03-14T09:55:48;8.70;97.90
9329;DHT22;4703;48.748;19.142;2023-03-14T09:58:19;8.70;98.60
9329;DHT22;4703;48.748;19.142;2023-03-14T10:00:49;11.00;99.90
9329;DHT22;4703;48.748;19.142;2023-03-14T10:03:33;11.40;99.90
9329;DHT22;4703;48.748;19.142;2023-03-14T10:06:01;8.70;99.60
9329;DHT22;4703;48.748;19.142;2023-03-14T10:08:28;11.40;99.90
9329;DHT22;4703;48.748;19.142;2023-03-14T10:11:04;8.60;99.20
9329;DHT22;4703;48.748;19.142;2023-03-14T10:22:43;11.60;99.90
9329;DHT22;4703;48.748;19.142;2023-03-14T10:25:27;10.60;98.20
9329;DHT22;4703;48.748;19.142;2023-03-14T10:38:16;6.90;96.90
9329;DHT22;4703;48.748;19.142;2023-03-14T10:40:48;11.20;98.70
9329;DHT22;4703;48.748;19.142;2023-03-14T10:43:18;8.60;98.40
9329;DHT22;4703;48.748;19.142;2023-03-14T10:46:09;8.50;97.60
9329;DHT22;4703;48.748;19.142;2023-03-14T10:48:42;8.50;97.50
9329;DHT22;4703;48.748;19.142;2023-03-14T10:53:56;8.50;97.60
9329;DHT22;4703;48.748;19.142;2023-03-14T10:56:34;8.50;98.30
9329;DHT22;4703;48.748;19.142;2023-03-14T10:59:06;8.50;99.00
9329;DHT22;4703;48.748;19.142;2023-03-14T11:01:58;8.50;98.90
9329;DHT22;4703;48.748;19.142;2023-03-14T11:07:28;8.50;98.70
9329;DHT22;4703;48.748;19.142;2023-03-14T11:10:26;10.20;99.20
9329;DHT22;4703;48.748;19.142;2023-03-14T11:13:08;11.10;99.30
9329;DHT22;4703;48.748;19.142;2023-03-14T11:15:57;9.60;98.80
9329;DHT22;4703;48.748;19.142;2023-03-14T11:34:54;8.80;97.20
9329;DHT22;4703;48.748;19.142;2023-03-14T11:37:36;8.60;97.30
9329;DHT22;4703;48.748;19.142;2023-03-14T11:42:48;10.40;97.60
9329;DHT22;4703;48.748;19.142;2023-03-14T11:45:35;8.60;97.50
9329;DHT22;4703;48.748;19.142;2023-03-14T11:51:28;9.50;97.70
9329;DHT22;4703;48.748;19.142;2023-03-14T11:54:16;8.70;97.30
9329;DHT22;4703;48.748;19.142;2023-03-14T11:57:14;9.40;97.70
9329;DHT22;4703;48.748;19.142;2023-03-14T12:00:04;8.80;97.10
9329;DHT22;4703;48.748;19.142;2023-03-14T12:10:53;9.90;97.80
9329;DHT22;4703;48.748;19.142;2023-03-14T12:13:28;8.80;97.80
9329;DHT22;4703;48.748;19.142;2023-03-14T12:15:59;10.60;98.30
9329;DHT22;4703;48.748;19.142;2023-03-14T12:18:36;10.70;98.00
9329;DHT22;4703;48.748;19.142;2023-03-14T12:21:12;8.80;97.40
9329;DHT22;4703;48.748;19.142;2023-03-14T12:23:55;9.00;97.70
9329;DHT22;4703;48.748;19.142;2023-03-14T12:26:26;8.80;97.60
9329;DHT22;4703;48.748;19.142;2023-03-14T12:45:25;8.90;97.60
9329;DHT22;4703;48.748;19.142;2023-03-14T12:48:08;8.90;97.70
9329;DHT22;4703;48.748;19.142;2023-03-14T12:50:53;8.90;97.60
9329;DHT22;4703;48.748;19.142;2023-03-14T12:56:35;8.90;98.10
9329;DHT22;4703;48.748;19.142;2023-03-14T13:02:01;8.90;98.00
9329;DHT22;4703;48.748;19.142;2023-03-14T13:04:48;8.90;98.10
9329;DHT22;4703;48.748;19.142;2023-03-14T13:12:56;9.20;98.90
9329;DHT22;4703;48.748;19.142;2023-03-14T13:18:13;9.80;99.30
9329;DHT22;4703;48.748;19.142;2023-03-14T13:20:54;11.10;99.20
9329;DHT22;4703;48.748;19.142;2023-03-14T13:23:29;9.30;99.00
9329;DHT22;4703;48.748;19.142;2023-03-14T13:26:00;11.00;99.30
9329;DHT22;4703;48.748;19.142;2023-03-14T13:28:29;10.70;99.30
9329;DHT22;4703;48.748;19.142;2023-03-14T13:31:01;10.40;98.80
9329;DHT22;4703;48.748;19.142;2023-03-14T13:33:33;10.30;98.80
9329;DHT22;4703;48.748;19.142;2023-03-14T13:36:04;9.30;99.30
9329;DHT22;4703;48.748;19.142;2023-03-14T13:38:35;9.30;99.60
9329;DHT22;4703;48.748;19.142;2023-03-14T13:41:07;10.50;99.90
9329;DHT22;4703;48.748;19.142;2023-03-14T13:43:41;9.30;99.80
9329;DHT22;4703;48.748;19.142;2023-03-14T13:46:16;9.40;99.60
9329;DHT22;4703;48.748;19.142;2023-03-14T13:48:49;11.10;99.90
9329;DHT22;4703;48.748;19.142;2023-03-14T13:51:20;9.30;99.20
9329;DHT22;4703;48.748;19.142;2023-03-14T13:53:50;12.00;99.90
9329;DHT22;4703;48.748;19.142;2023-03-14T13:56:22;11.70;99.80
9329;DHT22;4703;48.748;19.142;2023-03-14T13:58:51;9.30;99.60
9329;DHT22;4703;48.748;19.142;2023-03-14T14:01:26;11.40;99.90
9329;DHT22;4703;48.748;19.142;2023-03-14T14:04:02;9.20;99.60
9329;DHT22;4703;48.748;19.142;2023-03-14T14:06:35;9.20;99.90
9329;DHT22;4703;48.748;19.142;2023-03-14T14:09:16;9.20;99.90
9329;DHT22;4703;48.748;19.142;2023-03-14T14:14:59;9.20;99.90
9329;DHT22;4703;48.748;19.142;2023-03-14T14:23:11;9.10;99.90
9329;DHT22;4703;48.748;19.142;2023-03-14T14:25:43;9.10;99.90
9329;DHT22;4703;48.748;19.142;2023-03-14T14:28:31;9.20;99.90
9329;DHT22;4703;48.748;19.142;2023-03-14T14:31:18;9.10;99.90
9329;DHT22;4703;48.748;19.142;2023-03-14T14:34:00;9.20;99.90
9329;DHT22;4703;48.748;19.142;2023-03-14T14:39:11;9.00;99.90
9329;DHT22;4703;48.748;19.142;2023-03-14T14:41:49;10.20;99.90
9329;DHT22;4703;48.748;19.142;2023-03-14T14:44:26;9.00;99.90
9329;DHT22;4703;48.748;19.142;2023-03-14T14:46:56;11.40;99.90
9329;DHT22;4703;48.748;19.142;2023-03-14T14:49:30;10.60;99.90
9329;DHT22;4703;48.748;19.142;2023-03-14T14:52:13;8.80;99.90
9329;DHT22;4703;48.748;19.142;2023-03-14T14:54:53;8.80;99.90
9329;DHT22;4703;48.748;19.142;2023-03-14T14:57:32;8.80;99.90
9329;DHT22;4703;48.748;19.142;2023-03-14T15:00:08;8.70;99.90
9329;DHT22;4703;48.748;19.142;2023-03-14T15:02:41;8.70;99.90
9329;DHT22;4703;48.748;19.142;2023-03-14T15:05:23;9.10;99.90
9329;DHT22;4703;48.748;19.142;2023-03-14T15:07:52;8.60;99.90
9329;DHT22;4703;48.748;19.142;2023-03-14T15:10:21;8.70;99.90
9329;DHT22;4703;48.748;19.142;2023-03-14T15:12:50;8.50;99.90
9329;DHT22;4703;48.748;19.142;2023-03-14T15:15:18;10.70;99.90
9329;DHT22;4703;48.748;19.142;2023-03-14T15:17:45;10.00;99.90
9329;DHT22;4703;48.748;19.142;2023-03-14T15:20:15;8.50;99.90
9329;DHT22;4703;48.748;19.142;2023-03-14T15:22:45;8.40;99.90
9329;DHT22;4703;48.748;19.142;2023-03-14T15:25:13;8.40;99.90
9329;DHT22;4703;48.748;19.142;2023-03-14T15:28:00;8.40;99.90
9329;DHT22;4703;48.748;19.142;2023-03-14T15:30:27;8.30;99.90
9329;DHT22;4703;48.748;19.142;2023-03-14T15:32:54;8.30;99.90
9329;DHT22;4703;48.748;19.142;2023-03-14T15:35:24;9.80;99.90
9329;DHT22;4703;48.748;19.142;2023-03-14T15:37:51;10.20;99.90
9329;DHT22;4703;48.748;19.142;2023-03-14T15:40:18;10.50;99.90
9329;DHT22;4703;48.748;19.142;2023-03-14T15:42:45;8.20;99.90
9329;DHT22;4703;48.748;19.142;2023-03-14T15:45:12;9.40;99.90
9329;DHT22;4703;48.748;19.142;2023-03-14T15:47:39;8.20;99.90
9329;DHT22;4703;48.748;19.142;2023-03-14T15:50:09;10.50;99.90
9329;DHT22;4703;48.748;19.142;2023-03-14T15:52:36;8.20;99.90
9329;DHT22;4703;48.748;19.142;2023-03-14T15:55:04;9.40;99.90
9329;DHT22;4703;48.748;19.142;2023-03-14T15:57:32;8.10;99.90
9329;DHT22;4703;48.748;19.142;2023-03-14T15:59:59;10.80;99.90
9329;DHT22;4703;48.748;19.142;2023-03-14T16:02:25;10.20;99.90
9329;DHT22;4703;48.748;19.142;2023-03-14T16:04:53;8.10;99.90
9329;DHT22;4703;48.748;19.142;2023-03-14T16:07:20;8.50;99.90
9329;DHT22;4703;48.748;19.142;2023-03-14T16:09:47;8.10;99.90
9329;DHT22;4703;48.748;19.142;2023-03-14T16:12:14;10.60;99.90
9329;DHT22;4703;48.748;19.142;2023-03-14T16:14:41;10.20;99.90
9329;DHT22;4703;48.748;19.142;2023-03-14T16:17:09;8.00;99.90
9329;DHT22;4703;48.748;19.142;2023-03-14T16:19:40;9.60;99.90
9329;DHT22;4703;48.748;19.142;2023-03-14T16:22:07;9.60;99.90
9329;DHT22;4703;48.748;19.142;2023-03-14T16:24:34;9.90;99.90
9329;DHT22;4703;48.748;19.142;2023-03-14T16:27:01;7.90;99.90
9329;DHT22;4703;48.748;19.142;2023-03-14T16:29:29;7.90;99.90
9329;DHT22;4703;48.748;19.142;2023-03-14T16:31:56;10.00;99.90
9329;DHT22;4703;48.748;19.142;2023-03-14T16:34:24;8.10;99.90
9329;DHT22;4703;48.748;19.142;2023-03-14T16:36:51;7.80;99.90
9329;DHT22;4703;48.748;19.142;2023-03-14T16:39:18;10.60;99.90
9329;DHT22;4703;48.748;19.142;2023-03-14T16:41:45;7.80;99.90
9329;DHT22;4703;48.748;19.142;2023-03-14T16:44:12;10.30;99.90
9329;DHT22;4703;48.748;19.142;2023-03-14T16:46:39;8.50;99.90
9329;DHT22;4703;48.748;19.142;2023-03-14T16:49:07;7.80;99.90
9329;DHT22;4703;48.748;19.142;2023-03-14T16:51:34;9.10;99.90
9329;DHT22;4703;48.748;19.142;2023-03-14T16:54:14;8.50;99.90
9329;DHT22;4703;48.748;19.142;2023-03-14T16:56:45;7.70;99.90
9329;DHT22;4703;48.748;19.142;2023-03-14T16:59:20;7.70;99.90
9329;DHT22;4703;48.748;19.142;2023-03-14T17:01:52;7.70;99.90
9329;DHT22;4703;48.748;19.142;2023-03-14T17:04:24;7.70;99.90
9329;DHT22;4703;48.748;19.142;2023-03-14T17:06:55;7.70;99.90
9329;DHT22;4703;48.748;19.142;2023-03-14T17:09:26;7.70;99.90
9329;DHT22;4703;48.748;19.142;2023-03-14T17:11:56;7.70;99.90
9329;DHT22;4703;48.748;19.142;2023-03-14T17:14:25;7.70;99.90
9329;DHT22;4703;48.748;19.142;2023-03-14T17:16:52;8.10;99.90
9329;DHT22;4703;48.748;19.142;2023-03-14T17:19:20;7.70;99.90
9329;DHT22;4703;48.748;19.142;2023-03-14T17:21:47;7.70;99.90
9329;DHT22;4703;48.748;19.142;2023-03-14T17:24:14;9.70;99.90
9329;DHT22;4703;48.748;19.142;2023-03-14T17:26:41;7.60;99.90
9329;DHT22;4703;48.748;19.142;2023-03-14T17:29:08;7.60;99.90
9329;DHT22;4703;48.748;19.142;2023-03-14T17:31:35;7.60;99.90
9329;DHT22;4703;48.748;19.142;2023-03-14T17:34:02;9.20;99.90
9329;DHT22;4703;48.748;19.142;2023-03-14T17:36:30;10.20;99.90
9329;DHT22;4703;48.748;19.142;2023-03-14T17:39:01;7.60;99.90
9329;DHT22;4703;48.748;19.142;2023-03-14T17:41:33;7.60;99.90
9329;DHT22;4703;48.748;19.142;2023-03-14T17:44:05;7.50;99.90
9329;DHT22;4703;48.748;19.142;2023-03-14T17:46:36;7.60;99.90
9329;DHT22;4703;48.748;19.142;2023-03-14T17:49:09;7.60;99.90
9329;DHT22;4703;48.748;19.142;2023-03-14T17:51:44;7.50;99.90
9329;DHT22;4703;48.748;19.142;2023-03-14T17:54:19;7.50;99.90
9329;DHT22;4703;48.748;19.142;2023-03-14T17:56:51;7.50;99.90
9329;DHT22;4703;48.748;19.142;2023-03-14T17:59:24;7.50;99.90
9329;DHT22;4703;48.748;19.142;2023-03-14T18:01:51;7.50;99.90
9329;DHT22;4703;48.748;19.142;2023-03-14T18:04:18;8.10;99.90
9329;DHT22;4703;48.748;19.142;2023-03-14T18:06:46;10.30;99.90